TimeCDT,TemperatureF,Dew PointF,Humidity,Sea Level PressureIn,VisibilityMPH,Wind Direction,Wind SpeedMPH,Gust SpeedMPH,PrecipitationIn,Events,Conditions,WindDirDegrees,DateUTC
12:53 AM,73.9,68.0,82,30.12,10.0,South,4.6,-,N/A,,Clear,190,2013-06-21 05:53:00
1:53 AM,73.0,66.9,81,30.12,10.0,South,3.5,-,N/A,,Clear,180,2013-06-21 06:53:00
2:53 AM,72.0,66.9,84,30.11,10.0,South,3.5,-,N/A,,Clear,190,2013-06-21 07:53:00
3:53 AM,72.0,66.9,84,30.11,10.0,South,4.6,-,N/A,,Clear,180,2013-06-21 08:53:00
4:53 AM,72.0,66.9,84,30.12,10.0,Calm,Calm,-,N/A,,Clear,0,2013-06-21 09:53:00
5:53 AM,69.1,66.0,90,30.14,10.0,Calm,Calm,-,N/A,,Clear,0,2013-06-21 10:53:00
6:53 AM,73.0,68.0,84,30.15,10.0,Calm,Calm,-,N/A,,Clear,0,2013-06-21 11:53:00
7:53 AM,75.9,68.0,76,30.17,10.0,SSE,5.8,-,N/A,,Clear,150,2013-06-21 12:53:00
8:53 AM,79.0,69.1,72,30.18,10.0,South,8.1,-,N/A,,Clear,170,2013-06-21 13:53:00
9:53 AM,82.0,69.1,65,30.18,10.0,South,8.1,-,N/A,,Clear,170,2013-06-21 14:53:00
10:53 AM,84.0,69.1,61,30.18,10.0,South,8.1,-,N/A,,Clear,190,2013-06-21 15:53:00
11:53 AM,84.9,70.0,61,30.17,10.0,Variable,4.6,-,N/A,,Partly Cloudy,0,2013-06-21 16:53:00
12:53 PM,86.0,70.0,59,30.16,10.0,SSE,5.8,-,N/A,,Partly Cloudy,160,2013-06-21 17:53:00
1:53 PM,87.1,69.1,55,30.15,10.0,SSE,6.9,-,N/A,,Partly Cloudy,150,2013-06-21 18:53:00
2:53 PM,88.0,68.0,51,30.14,10.0,SSE,5.8,-,N/A,,Partly Cloudy,160,2013-06-21 19:53:00
3:53 PM,89.1,69.1,52,30.12,10.0,Variable,6.9,-,N/A,,Partly Cloudy,0,2013-06-21 20:53:00
4:53 PM,88.0,69.1,53,30.10,10.0,South,5.8,-,N/A,,Clear,180,2013-06-21 21:53:00
5:53 PM,88.0,68.0,51,30.09,10.0,South,6.9,-,N/A,,Clear,170,2013-06-21 22:53:00
6:53 PM,86.0,69.1,57,30.09,10.0,South,3.5,-,N/A,,Clear,170,2013-06-21 23:53:00
7:53 PM,82.0,71.1,69,30.09,10.0,Calm,Calm,-,N/A,,Clear,0,2013-06-22 00:53:00
8:53 PM,75.9,71.1,85,30.10,10.0,SE,3.5,-,N/A,,Clear,140,2013-06-22 01:53:00
9:53 PM,75.9,70.0,82,30.12,10.0,SSE,3.5,-,N/A,,Clear,150,2013-06-22 02:53:00
10:53 PM,78.1,69.1,74,30.13,10.0,Calm,Calm,-,N/A,,Clear,0,2013-06-22 03:53:00
11:53 PM,73.9,69.1,85,30.12,10.0,South,3.5,-,N/A,,Clear,180,2013-06-22 04:53:00